createdAt,value
2022-08-25T00:00:22.637Z,21.34
2022-08-25T00:02:56.523Z,21.31
2022-08-25T00:05:32.265Z,21.30
2022-08-25T00:08:02.924Z,21.29
2022-08-25T00:10:32.527Z,21.31
2022-08-25T00:13:00.941Z,21.27
2022-08-25T00:15:32.620Z,21.25
2022-08-25T00:18:02.400Z,21.27
2022-08-25T00:20:31.160Z,21.28
2022-08-25T00:23:00.594Z,21.23
2022-08-25T00:25:30.836Z,21.17
2022-08-25T00:28:01.454Z,21.12
2022-08-25T00:30:32.848Z,21.08
2022-08-25T00:33:01.258Z,21.06
2022-08-25T00:35:30.007Z,21.01
2022-08-25T00:37:58.748Z,20.98
2022-08-25T00:40:29.059Z,20.98
2022-08-25T00:42:59.528Z,20.95
2022-08-25T00:45:28.739Z,20.92
2022-08-25T00:47:59.935Z,20.90
2022-08-25T00:50:30.686Z,20.93
2022-08-25T00:53:03.202Z,20.95
2022-08-25T00:55:37.353Z,20.94
2022-08-25T00:58:14.109Z,20.92
2022-08-25T01:00:46.790Z,20.88
2022-08-25T01:03:15.364Z,20.83
2022-08-25T01:05:44.870Z,20.78
2022-08-25T01:08:16.446Z,20.74
2022-08-25T01:10:46.976Z,20.68
2022-08-25T01:13:21.295Z,20.61
2022-08-25T01:15:51.536Z,20.55
2022-08-25T01:18:20.919Z,20.49
2022-08-25T01:20:53.701Z,20.53
2022-08-25T01:23:24.202Z,20.52
2022-08-25T01:25:59.699Z,20.51
2022-08-25T01:28:29.308Z,20.49
2022-08-25T01:30:57.704Z,20.51
2022-08-25T01:33:27.383Z,20.49
2022-08-25T01:35:57.484Z,20.48
2022-08-25T01:38:25.823Z,20.48
2022-08-25T01:40:55.165Z,20.45
2022-08-25T01:43:32.561Z,20.42
2022-08-25T01:46:01.816Z,20.38
2022-08-25T01:48:30.716Z,20.35
2022-08-25T01:51:00.444Z,20.33
2022-08-25T01:53:33.406Z,20.30
2022-08-25T01:56:11.421Z,20.32
2022-08-25T01:58:42.921Z,20.30
2022-08-25T02:01:16.402Z,20.32
2022-08-25T02:03:47.403Z,20.32
2022-08-25T02:06:22.230Z,20.27
2022-08-25T02:09:02.430Z,20.24
2022-08-25T02:11:30.808Z,20.24
2022-08-25T02:14:00.119Z,20.22
2022-08-25T02:16:31.657Z,20.17
2022-08-25T02:19:01.529Z,20.12
2022-08-25T02:21:32.840Z,20.11
2022-08-25T02:24:01.690Z,20.15
2022-08-25T02:26:30.793Z,20.15
2022-08-25T02:28:59.364Z,20.17
2022-08-25T02:31:29.240Z,20.18
2022-08-25T02:33:57.922Z,20.12
2022-08-25T02:36:27.378Z,20.07
2022-08-25T02:38:57.082Z,20.02
2022-08-25T02:41:31.068Z,20.00
2022-08-25T02:44:01.070Z,19.99
2022-08-25T02:46:31.439Z,19.95
2022-08-25T02:49:00.595Z,19.97
2022-08-25T02:51:30.866Z,19.91
2022-08-25T02:54:03.427Z,19.93
2022-08-25T02:56:33.444Z,19.96
2022-08-25T02:59:03.275Z,19.97
2022-08-25T03:01:32.562Z,19.95
2022-08-25T03:04:03.143Z,19.90
2022-08-25T03:06:31.661Z,19.95
2022-08-25T03:09:01.890Z,19.96
2022-08-25T03:11:30.319Z,19.95
2022-08-25T03:13:59.472Z,19.90
2022-08-25T03:16:28.245Z,19.87
2022-08-25T03:18:58.338Z,19.86
2022-08-25T03:21:27.857Z,19.81
2022-08-25T03:23:56.579Z,19.77
2022-08-25T03:26:59.253Z,19.71
2022-08-25T03:29:29.960Z,19.67
2022-08-25T03:32:00.454Z,19.66
2022-08-25T03:34:30.694Z,19.66
2022-08-25T03:37:00.133Z,19.63
2022-08-25T03:39:29.434Z,19.61
2022-08-25T03:41:59.604Z,19.57
2022-08-25T03:44:28.437Z,19.56
2022-08-25T03:46:57.341Z,19.59
2022-08-25T03:49:26.264Z,19.61
2022-08-25T03:51:55.855Z,19.56
2022-08-25T03:54:27.507Z,19.54
2022-08-25T03:56:56.866Z,19.55
2022-08-25T03:59:27.590Z,19.56
2022-08-25T04:01:55.983Z,19.57
2022-08-25T04:04:25.200Z,19.55
2022-08-25T04:06:53.998Z,19.54
2022-08-25T04:09:23.325Z,19.54
2022-08-25T04:11:53.353Z,19.54
2022-08-25T04:14:24.031Z,19.55
2022-08-25T04:16:54.217Z,19.56
2022-08-25T04:19:23.776Z,19.55
2022-08-25T04:21:56.683Z,19.56
2022-08-25T04:24:26.125Z,19.56
2022-08-25T04:26:54.568Z,19.54
2022-08-25T04:29:25.203Z,19.54
2022-08-25T04:31:56.783Z,19.56
2022-08-25T04:34:29.447Z,19.55
2022-08-25T04:37:01.738Z,19.54
2022-08-25T04:39:31.456Z,19.52
2022-08-25T04:42:00.876Z,19.53
2022-08-25T04:44:31.163Z,19.52
2022-08-25T04:47:01.930Z,19.50
2022-08-25T04:49:31.010Z,19.50
2022-08-25T04:51:59.339Z,19.52
2022-08-25T04:54:28.590Z,19.51
2022-08-25T04:57:01.182Z,19.53
2022-08-25T04:59:30.561Z,19.54
2022-08-25T05:02:03.317Z,19.55
2022-08-25T05:04:33.315Z,19.53
2022-08-25T05:07:03.233Z,19.51
2022-08-25T05:09:32.888Z,19.49
2022-08-25T05:12:03.081Z,19.46
2022-08-25T05:14:31.699Z,19.44
2022-08-25T05:17:02.168Z,19.49
2022-08-25T05:19:30.673Z,19.49
2022-08-25T05:21:59.438Z,19.50
2022-08-25T05:24:29.994Z,19.53
2022-08-25T05:26:58.731Z,19.58
2022-08-25T05:29:27.283Z,19.63
2022-08-25T05:31:56.182Z,19.65
2022-08-25T05:34:26.264Z,19.66
2022-08-25T05:36:55.157Z,19.69
2022-08-25T05:39:26.784Z,19.72
2022-08-25T05:41:56.219Z,19.74
2022-08-25T05:44:24.569Z,19.76
2022-08-25T05:46:53.502Z,19.80
2022-08-25T05:49:22.088Z,19.81
2022-08-25T05:51:52.184Z,19.87
2022-08-25T05:54:21.471Z,19.92
2022-08-25T05:56:49.836Z,19.99
2022-08-25T05:59:18.229Z,20.00
2022-08-25T06:02:04.015Z,19.96
2022-08-25T06:04:32.782Z,19.93
2022-08-25T06:07:02.697Z,19.93
2022-08-25T06:09:31.024Z,19.97
2022-08-25T06:11:59.979Z,19.97
2022-08-25T06:14:28.300Z,19.96
2022-08-25T06:16:57.387Z,19.93
2022-08-25T06:19:26.143Z,19.98
2022-08-25T06:21:56.726Z,20.02
2022-08-25T06:24:27.572Z,20.04
2022-08-25T06:26:57.517Z,20.08
2022-08-25T06:29:27.035Z,20.14
2022-08-25T06:31:55.525Z,20.15
2022-08-25T06:34:24.470Z,20.20
2022-08-25T06:36:53.739Z,20.27
2022-08-25T06:39:22.526Z,20.38
2022-08-25T06:41:57.304Z,20.44
2022-08-25T06:44:28.918Z,20.55
2022-08-25T06:46:57.756Z,20.67
2022-08-25T06:49:31.834Z,20.79
2022-08-25T06:52:02.570Z,20.88
2022-08-25T06:54:31.006Z,20.99
2022-08-25T06:57:00.781Z,21.04
2022-08-25T06:59:32.265Z,21.16
2022-08-25T07:02:01.384Z,21.23
2022-08-25T07:04:32.550Z,21.32
2022-08-25T07:07:00.937Z,21.35
2022-08-25T07:09:30.219Z,21.39
2022-08-25T07:12:00.101Z,21.43
2022-08-25T07:14:28.466Z,21.48
2022-08-25T07:16:58.272Z,21.52
2022-08-25T07:19:27.892Z,21.60
2022-08-25T07:21:56.198Z,21.71
2022-08-25T07:24:25.525Z,21.74
2022-08-25T07:26:53.981Z,21.78
2022-08-25T07:29:32.009Z,21.84
2022-08-25T07:32:01.890Z,21.92
2022-08-25T07:34:51.834Z,21.98
2022-08-25T07:37:47.176Z,22.03
2022-08-25T07:40:13.835Z,22.17
2022-08-25T07:42:43.169Z,22.26
2022-08-25T07:45:15.596Z,22.34
2022-08-25T07:47:51.542Z,22.41
2022-08-25T07:50:21.523Z,22.49
2022-08-25T07:52:55.224Z,22.64
2022-08-25T07:55:30.405Z,22.72
2022-08-25T07:58:00.810Z,22.80
2022-08-25T08:00:33.254Z,22.90
2022-08-25T08:03:03.893Z,23.00
2022-08-25T08:05:33.012Z,23.07
2022-08-25T08:08:02.526Z,23.20
2022-08-25T08:11:00.603Z,23.31
2022-08-25T08:13:21.073Z,23.42
2022-08-25T08:15:51.243Z,23.51
2022-08-25T08:18:20.464Z,23.65
2022-08-25T08:20:50.212Z,23.74
2022-08-25T08:23:18.827Z,23.86
2022-08-25T08:25:48.404Z,23.88
2022-08-25T08:28:16.754Z,23.92
2022-08-25T08:30:53.746Z,24.08
2022-08-25T08:33:25.728Z,24.20
2022-08-25T08:36:05.279Z,24.33
2022-08-25T08:38:34.808Z,24.41
2022-08-25T08:42:07.347Z,24.52
2022-08-25T08:44:37.339Z,24.63
2022-08-25T08:47:12.644Z,24.74
2022-08-25T08:49:53.671Z,24.86
2022-08-25T08:52:31.914Z,24.95
2022-08-25T08:55:06.439Z,25.06
2022-08-25T08:57:44.217Z,25.26
2022-08-25T09:00:13.833Z,25.36
2022-08-25T09:02:51.966Z,25.54
2022-08-25T09:05:25.980Z,25.66
2022-08-25T09:07:58.326Z,25.88
2022-08-25T09:10:33.459Z,26.05
2022-08-25T09:13:11.909Z,26.15
2022-08-25T09:16:07.928Z,26.13
2022-08-25T09:18:50.944Z,26.32
2022-08-25T09:21:31.340Z,26.54
2022-08-25T09:24:18.398Z,26.78
2022-08-25T09:27:00.606Z,26.99
2022-08-25T09:29:36.572Z,27.17
2022-08-25T09:32:08.699Z,27.27
2022-08-25T09:34:38.997Z,27.38
2022-08-25T09:37:09.068Z,27.36
2022-08-25T09:39:39.005Z,27.50
2022-08-25T09:42:08.468Z,27.86
2022-08-25T09:44:43.472Z,28.22
2022-08-25T09:47:23.420Z,28.42
2022-08-25T09:50:00.739Z,28.60
2022-08-25T09:52:37.438Z,28.79
2022-08-25T09:55:32.486Z,28.50
2022-08-25T09:58:01.239Z,28.94
2022-08-25T10:00:38.696Z,29.17
2022-08-25T10:03:15.470Z,29.24
2022-08-25T10:06:02.599Z,28.88
2022-08-25T10:08:36.999Z,28.86
2022-08-25T10:11:13.091Z,28.98
2022-08-25T10:13:45.483Z,29.17
2022-08-25T10:16:24.839Z,29.74
2022-08-25T10:19:10.361Z,30.14
2022-08-25T10:21:40.811Z,30.61
2022-08-25T10:24:12.876Z,30.57
2022-08-25T10:27:01.255Z,30.30
2022-08-25T10:29:47.074Z,30.45
2022-08-25T10:32:20.729Z,30.48
2022-08-25T10:34:52.555Z,30.47
2022-08-25T10:37:34.122Z,30.83
2022-08-25T10:40:22.774Z,30.51
2022-08-25T10:43:07.759Z,30.34
2022-08-25T10:45:46.413Z,30.45
2022-08-25T10:48:28.868Z,30.14
2022-08-25T10:51:04.062Z,29.81
2022-08-25T10:53:44.150Z,29.59
2022-08-25T10:56:19.274Z,30.06
2022-08-25T10:59:15.788Z,30.06
2022-08-25T11:01:59.784Z,29.93
2022-08-25T11:04:36.513Z,30.07
2022-08-25T11:07:10.810Z,29.84
2022-08-25T11:09:44.523Z,29.50
2022-08-25T11:12:20.228Z,29.24
2022-08-25T11:14:53.684Z,29.26
2022-08-25T11:17:26.163Z,29.38
2022-08-25T11:19:58.986Z,29.46
2022-08-25T11:22:34.445Z,29.63
2022-08-25T11:25:13.948Z,29.79
2022-08-25T11:27:48.815Z,29.93
2022-08-25T11:30:19.049Z,30.19
2022-08-25T11:32:50.638Z,30.41
2022-08-25T11:35:27.257Z,30.44
2022-08-25T11:38:10.771Z,30.08
2022-08-25T11:40:53.627Z,29.82
2022-08-25T11:43:46.119Z,30.36
2022-08-25T11:46:33.326Z,31.02
2022-08-25T11:49:16.369Z,31.18
2022-08-25T11:51:48.350Z,31.31
2022-08-25T11:54:26.547Z,31.38
2022-08-25T11:57:00.689Z,31.30
2022-08-25T12:00:12.476Z,31.32
2022-08-25T12:02:44.035Z,30.99
2022-08-25T12:05:59.963Z,31.48
2022-08-25T12:08:51.352Z,32.01
2022-08-25T12:11:46.784Z,32.11
2022-08-25T12:14:40.045Z,31.73
2022-08-25T12:17:21.262Z,31.76
2022-08-25T12:19:56.155Z,32.22
2022-08-25T12:22:55.582Z,32.53
2022-08-25T12:25:49.841Z,32.33
2022-08-25T12:28:44.143Z,32.01
2022-08-25T12:31:26.556Z,32.29
2022-08-25T12:34:10.789Z,32.36
2022-08-25T12:36:56.322Z,31.99
2022-08-25T12:39:31.894Z,31.68
2022-08-25T12:42:04.285Z,31.45
2022-08-25T12:44:42.094Z,31.42
2022-08-25T12:47:33.930Z,31.34
2022-08-25T12:50:36.205Z,31.12
2022-08-25T12:53:12.691Z,30.96
2022-08-25T12:55:45.971Z,30.83
2022-08-25T12:58:14.399Z,30.99
2022-08-25T13:01:20.190Z,31.36
2022-08-25T13:04:34.019Z,31.14
2022-08-25T13:07:22.007Z,31.46
2022-08-25T13:10:17.487Z,31.67
2022-08-25T13:12:52.575Z,31.53
2022-08-25T13:15:37.547Z,31.54
2022-08-25T13:18:19.733Z,31.55
2022-08-25T13:20:50.833Z,31.61
2022-08-25T13:23:27.218Z,31.65
2022-08-25T13:25:59.050Z,31.62
2022-08-25T13:28:32.190Z,31.83
2022-08-25T13:31:08.522Z,31.82
2022-08-25T13:33:37.617Z,32.08
2022-08-25T13:36:26.661Z,32.08
2022-08-25T13:39:13.778Z,32.03
2022-08-25T13:41:49.566Z,31.97
2022-08-25T13:44:27.125Z,31.83
2022-08-25T13:47:07.773Z,31.85
2022-08-25T13:49:37.248Z,31.75
2022-08-25T13:52:07.724Z,31.88
2022-08-25T13:54:42.347Z,32.03
2022-08-25T13:57:22.950Z,32.15
2022-08-25T13:59:58.055Z,32.20
2022-08-25T14:02:44.168Z,32.11
2022-08-25T14:05:14.186Z,32.16
2022-08-25T14:08:09.239Z,32.19
2022-08-25T14:10:46.419Z,32.33
2022-08-25T14:13:18.897Z,32.57
2022-08-25T14:15:47.683Z,32.90
2022-08-25T14:18:21.639Z,33.44
2022-08-25T14:20:58.029Z,33.33
2022-08-25T14:23:29.607Z,33.39
2022-08-25T14:26:00.450Z,33.27
2022-08-25T14:28:31.892Z,33.22
2022-08-25T14:31:05.292Z,33.38
2022-08-25T14:33:38.635Z,33.43
2022-08-25T14:36:08.825Z,33.35
2022-08-25T14:38:39.003Z,33.34
2022-08-25T14:41:11.206Z,33.45
2022-08-25T14:43:40.005Z,33.39
2022-08-25T14:46:18.341Z,33.43
2022-08-25T14:48:49.053Z,33.64
2022-08-25T14:51:18.147Z,33.63
2022-08-25T14:53:47.910Z,33.53
2022-08-25T14:56:17.659Z,33.73
2022-08-25T14:58:48.548Z,33.87
2022-08-25T15:01:28.961Z,33.80
2022-08-25T15:04:04.569Z,33.62
2022-08-25T15:06:35.606Z,33.61
2022-08-25T15:09:11.562Z,33.65
2022-08-25T15:11:46.051Z,33.80
2022-08-25T15:14:17.406Z,33.94
2022-08-25T15:16:49.374Z,34.34
2022-08-25T15:19:20.187Z,34.24
2022-08-25T15:21:49.610Z,33.94
2022-08-25T15:24:18.913Z,33.47
2022-08-25T15:29:29.687Z,33.13
2022-08-25T15:31:59.000Z,33.33
2022-08-25T15:34:27.478Z,33.59
2022-08-25T15:36:58.287Z,33.75
2022-08-25T15:39:27.389Z,33.99
2022-08-25T15:41:57.368Z,34.17
2022-08-25T15:44:29.472Z,34.21
2022-08-25T15:46:59.087Z,34.27
2022-08-25T15:49:29.852Z,34.49
2022-08-25T15:52:00.996Z,34.54
2022-08-25T15:54:31.036Z,34.21
2022-08-25T15:57:01.582Z,34.06
2022-08-25T15:59:30.778Z,34.18
2022-08-25T16:02:00.488Z,34.14
2022-08-25T16:04:30.558Z,34.06
2022-08-25T16:07:01.444Z,34.22
2022-08-25T16:09:31.323Z,34.26
2022-08-25T16:12:06.757Z,34.24
2022-08-25T16:14:38.340Z,33.98
2022-08-25T16:17:07.275Z,33.51
2022-08-25T16:19:38.248Z,33.25
2022-08-25T16:22:08.829Z,33.06
2022-08-25T16:24:40.799Z,33.09
2022-08-25T16:27:12.914Z,33.12
2022-08-25T16:29:44.209Z,33.01
2022-08-25T16:32:15.361Z,32.91
2022-08-25T16:34:44.539Z,32.83
2022-08-25T16:37:13.565Z,32.56
2022-08-25T16:39:46.595Z,32.46
2022-08-25T16:42:16.584Z,32.35
2022-08-25T16:44:45.758Z,32.14
2022-08-25T16:47:17.789Z,32.04
2022-08-25T16:49:49.090Z,31.78
2022-08-25T16:52:35.958Z,31.47
2022-08-25T16:55:16.596Z,31.26
2022-08-25T16:57:51.905Z,31.17
2022-08-25T17:00:23.432Z,30.95
2022-08-25T17:02:58.350Z,30.73
2022-08-25T17:05:28.172Z,30.72
2022-08-25T17:08:14.419Z,30.72
2022-08-25T17:10:44.432Z,30.47
2022-08-25T17:13:14.841Z,30.35
2022-08-25T17:15:45.486Z,30.35
2022-08-25T17:18:14.669Z,30.18
2022-08-25T17:20:45.734Z,30.09
2022-08-25T17:23:14.288Z,30.00
2022-08-25T17:25:43.750Z,29.97
2022-08-25T17:28:13.177Z,29.93
2022-08-25T17:30:43.212Z,29.82
2022-08-25T17:33:12.205Z,29.75
2022-08-25T17:35:43.407Z,29.63
2022-08-25T17:38:13.239Z,29.53
2022-08-25T17:40:43.251Z,29.45
2022-08-25T17:43:13.314Z,29.43
2022-08-25T17:45:43.016Z,29.31
2022-08-25T17:48:13.769Z,29.22
2022-08-25T17:50:42.787Z,29.14
2022-08-25T17:53:11.967Z,29.08
2022-08-25T17:55:43.190Z,29.01
2022-08-25T17:58:14.670Z,28.93
2022-08-25T18:00:47.059Z,28.90
2022-08-25T18:03:16.105Z,28.88
2022-08-25T18:05:45.119Z,28.80
2022-08-25T18:08:14.935Z,28.73
2022-08-25T18:10:43.814Z,28.70
2022-08-25T18:13:12.959Z,28.65
2022-08-25T18:15:45.534Z,28.56
2022-08-25T18:18:14.537Z,28.52
2022-08-25T18:20:46.900Z,28.53
2022-08-25T18:23:15.599Z,28.48
2022-08-25T18:25:44.889Z,28.39
2022-08-25T18:28:13.454Z,28.37
2022-08-25T18:30:45.722Z,28.30
2022-08-25T18:33:15.474Z,28.21
2022-08-25T18:35:44.046Z,28.07
2022-08-25T18:38:30.963Z,27.97
2022-08-25T18:41:01.339Z,27.84
2022-08-25T18:43:33.887Z,27.73
2022-08-25T18:46:06.001Z,27.69
2022-08-25T18:48:37.910Z,27.65
2022-08-25T18:51:07.830Z,27.69
2022-08-25T18:53:50.228Z,27.68
2022-08-25T18:56:21.032Z,27.62
2022-08-25T18:58:49.908Z,27.56
2022-08-25T19:01:22.122Z,27.49
2022-08-25T19:03:51.322Z,27.40
2022-08-25T19:06:21.332Z,27.33
2022-08-25T19:08:58.990Z,27.21
2022-08-25T19:11:28.370Z,27.15
2022-08-25T19:14:00.021Z,27.06
2022-08-25T19:16:35.941Z,26.96
2022-08-25T19:19:06.642Z,26.93
2022-08-25T19:21:38.594Z,26.90
2022-08-25T19:24:09.849Z,26.86
2022-08-25T19:26:38.903Z,26.86
2022-08-25T19:29:09.778Z,26.86
2022-08-25T19:31:42.255Z,26.80
2022-08-25T19:34:14.368Z,26.73
2022-08-25T19:36:44.841Z,26.69
2022-08-25T19:39:16.384Z,26.63
2022-08-25T19:41:46.109Z,26.59
2022-08-25T19:44:16.241Z,26.48
2022-08-25T19:46:46.909Z,26.46
2022-08-25T19:49:26.536Z,26.40
2022-08-25T19:51:57.106Z,26.34
2022-08-25T19:54:29.318Z,26.31
2022-08-25T19:56:59.175Z,26.26
2022-08-25T19:59:42.298Z,26.23
2022-08-25T20:02:16.592Z,26.18
2022-08-25T20:04:49.973Z,26.11
2022-08-25T20:07:20.635Z,26.02
2022-08-25T20:09:50.296Z,25.82
2022-08-25T20:12:20.539Z,25.91
2022-08-25T20:14:51.267Z,25.87
2022-08-25T20:17:41.550Z,25.84
2022-08-25T20:20:13.533Z,25.80
2022-08-25T20:22:43.427Z,25.75
2022-08-25T20:25:14.834Z,25.68
2022-08-25T20:27:49.452Z,25.63
2022-08-25T20:30:22.122Z,25.61
2022-08-25T20:32:55.200Z,25.57
2022-08-25T20:35:26.838Z,25.49
2022-08-25T20:37:57.601Z,25.44
2022-08-25T20:40:28.379Z,25.40
2022-08-25T20:42:59.703Z,25.38
2022-08-25T20:45:32.410Z,25.34
2022-08-25T20:48:02.229Z,25.36
2022-08-25T20:50:33.596Z,25.32
2022-08-25T20:53:02.548Z,25.26
2022-08-25T20:55:32.095Z,25.21
2022-08-25T20:58:09.651Z,25.18
2022-08-25T21:00:38.042Z,25.12
2022-08-25T21:03:09.484Z,25.07
2022-08-25T21:05:39.717Z,25.04
2022-08-25T21:08:10.975Z,25.07
2022-08-25T21:10:39.288Z,25.06
2022-08-25T21:13:08.948Z,24.99
2022-08-25T21:15:40.711Z,24.97
2022-08-25T21:18:11.405Z,24.87
2022-08-25T21:20:40.169Z,24.76
2022-08-25T21:23:09.208Z,24.72
2022-08-25T21:25:40.991Z,24.72
2022-08-25T21:28:10.153Z,24.64
2022-08-25T21:30:42.094Z,24.65
2022-08-25T21:33:16.820Z,24.61
2022-08-25T21:35:46.804Z,24.64
2022-08-25T21:38:15.358Z,24.64
2022-08-25T21:40:44.989Z,24.55
2022-08-25T21:43:20.382Z,24.44
2022-08-25T21:45:50.074Z,24.41
2022-08-25T21:48:20.168Z,24.42
2022-08-25T21:50:48.777Z,24.40
2022-08-25T21:53:27.005Z,24.39
2022-08-25T21:55:55.378Z,24.39
2022-08-25T21:58:24.559Z,24.33
2022-08-25T22:00:53.933Z,24.35
2022-08-25T22:03:24.467Z,24.31
2022-08-25T22:05:53.208Z,24.26
2022-08-25T22:08:22.483Z,24.20
2022-08-25T22:11:00.308Z,24.15
2022-08-25T22:13:30.332Z,24.10
2022-08-25T22:15:59.299Z,24.14
2022-08-25T22:18:31.537Z,24.13
2022-08-25T22:21:00.807Z,24.03
2022-08-25T22:23:44.247Z,24.04
2022-08-25T22:26:28.262Z,24.07
2022-08-25T22:28:59.507Z,24.05
2022-08-25T22:31:28.948Z,24.01
2022-08-25T22:34:00.021Z,24.01
2022-08-25T22:36:34.891Z,23.99
2022-08-25T22:39:05.565Z,23.92
2022-08-25T22:41:35.860Z,23.89
2022-08-25T22:44:10.632Z,23.90
2022-08-25T22:46:40.038Z,23.91
2022-08-25T22:49:10.576Z,23.88
2022-08-25T22:51:40.084Z,23.89
2022-08-25T22:54:09.612Z,23.86
2022-08-25T22:56:38.904Z,23.83
2022-08-25T22:59:10.711Z,23.80
2022-08-25T23:01:40.216Z,23.61
2022-08-25T23:04:10.779Z,23.50
2022-08-25T23:06:39.845Z,23.42
2022-08-25T23:09:10.737Z,23.43
2022-08-25T23:11:40.086Z,23.47
2022-08-25T23:14:11.057Z,23.44
2022-08-25T23:16:41.742Z,23.42
2022-08-25T23:19:13.996Z,23.41
2022-08-25T23:22:01.550Z,23.35
2022-08-25T23:24:31.086Z,23.33
2022-08-25T23:27:01.967Z,23.35
2022-08-25T23:29:31.553Z,23.34
2022-08-25T23:32:00.291Z,23.30
2022-08-25T23:34:30.142Z,23.28
2022-08-25T23:36:59.661Z,23.24
2022-08-25T23:39:33.863Z,23.11
2022-08-25T23:42:03.156Z,23.10
2022-08-25T23:44:32.546Z,23.13
2022-08-25T23:47:01.801Z,23.10
2022-08-25T23:49:32.636Z,23.09
2022-08-25T23:52:02.955Z,23.03
2022-08-25T23:54:52.722Z,22.98
2022-08-25T23:57:21.145Z,22.99
2022-08-25T23:59:52.057Z,22.98
